Time;durP1;ratioP1;P1;durP2;ratioP2;P2;SDS_P1;SDS_P2;PMS_P1;PMS_P2;Temp;Humidity;BMP_temperature;BMP_pressure;BME280_temperature;BME280_humidity;BME280_pressure;Samples;Min_cycle;Max_cycle;Signal;HPM_P1;HPM_P2
2022/12/30 00:00:45;;;;;;;;;;;;;;;25.90;42.91;94229.72;5042431;28;9104;-64
2022/12/30 00:03:11;;;;;;;;;;;;;;;25.89;43.08;94228.94;5052447;28;8337;-62
2022/12/30 00:05:37;;;;;;;;;;;;;;;25.90;42.99;94235.94;5055883;28;7109;-62
2022/12/30 00:08:45;;;;;;;;;;;;;;;25.89;42.48;94233.72;5057609;28;9856;-63
2022/12/30 00:10:55;;;;;;;;;;;;;;;25.90;43.05;94237.97;5069870;28;7279;-61
2022/12/30 00:34:36;;;;;;;;;;;;;;;25.89;43.09;94264.78;4970222;28;7143;-64
2022/12/30 00:37:06;;;;;;;;;;;;;;;25.89;42.41;94261.28;4950877;28;9679;-63
2022/12/30 00:39:35;;;;;;;;;;;;;;;25.87;43.06;94270.06;4958251;28;7015;-63
2022/12/30 00:44:51;;;;;;;;;;;;;;;25.88;43.15;94274.28;4962348;28;9498;-63
2022/12/30 00:47:20;;;;;;;;;;;;;;;25.87;42.50;94274.81;4945755;28;7244;-63
2022/12/30 00:58:04;;;;;;;;;;;;;;;25.86;42.95;94278.84;4990113;28;7102;-63
2022/12/30 01:00:33;;;;;;;;;;;;;;;25.87;42.98;94286.59;4988190;28;8851;-64
2022/12/30 01:03:02;;;;;;;;;;;;;;;25.87;43.09;94289.34;4984661;28;7800;-64
2022/12/30 01:05:37;;;;;;;;;;;;;;;25.88;43.13;94288.06;4989440;28;7176;-63
2022/12/30 01:08:14;;;;;;;;;;;;;;;25.87;43.20;94297.63;4985905;28;7040;-62
2022/12/30 01:10:43;;;;;;;;;;;;;;;25.88;42.70;94299.09;4988277;28;7052;-64
2022/12/30 01:13:22;;;;;;;;;;;;;;;25.88;43.22;94303.88;5051919;28;8240;-63
2022/12/30 01:16:15;;;;;;;;;;;;;;;25.89;43.16;94311.63;5050873;28;8698;-63
2022/12/30 01:19:12;;;;;;;;;;;;;;;25.89;43.23;94311.63;4983200;28;7352;-63
2022/12/30 01:21:41;;;;;;;;;;;;;;;25.89;42.57;94322.66;4937784;28;9330;-63
2022/12/30 01:24:26;;;;;;;;;;;;;;;25.88;42.60;94321.13;4933504;29;7593;-63
2022/12/30 01:27:04;;;;;;;;;;;;;;;25.89;43.05;94328.16;4925814;28;7296;-62
2022/12/30 01:29:37;;;;;;;;;;;;;;;25.90;43.10;94329.63;4936589;28;9694;-63
2022/12/30 01:32:30;;;;;;;;;;;;;;;25.91;42.55;94335.91;4938035;28;7050;-64
2022/12/30 01:35:01;;;;;;;;;;;;;;;25.91;42.57;94341.41;4936669;28;7421;-64
2022/12/30 01:37:31;;;;;;;;;;;;;;;25.90;42.89;94345.44;4928018;28;7023;-64
2022/12/30 01:39:57;;;;;;;;;;;;;;;25.89;42.90;94346.69;4933850;28;7467;-63
2022/12/30 01:42:32;;;;;;;;;;;;;;;25.89;42.69;94354.94;4936995;28;6960;-63
2022/12/30 01:45:33;;;;;;;;;;;;;;;25.88;42.76;94348.69;4933370;28;7027;-63
2022/12/30 01:48:26;;;;;;;;;;;;;;;25.89;42.28;94355.72;4919791;29;8273;-63
2022/12/30 01:51:18;;;;;;;;;;;;;;;25.88;43.23;94358.97;4926763;29;8604;-64
2022/12/30 01:54:02;;;;;;;;;;;;;;;25.89;42.52;94354.94;4938095;28;7227;-63
2022/12/30 01:56:40;;;;;;;;;;;;;;;25.87;42.69;94354.72;4968661;28;7152;-61
2022/12/30 01:59:21;;;;;;;;;;;;;;;25.88;42.56;94353.47;5046350;28;9157;-64
2022/12/30 02:01:51;;;;;;;;;;;;;;;25.87;43.09;94360.22;5054218;28;6989;-64
2022/12/30 02:04:28;;;;;;;;;;;;;;;25.86;42.90;94353.25;5053036;28;7234;-63
2022/12/30 02:07:14;;;;;;;;;;;;;;;25.87;42.47;94357.47;5056248;28;7308;-62
2022/12/30 02:09:48;;;;;;;;;;;;;;;25.86;42.91;94356.72;5047161;28;7263;-64
2022/12/30 02:12:22;;;;;;;;;;;;;;;25.86;42.39;94359.47;5041533;28;7140;-64
2022/12/30 02:14:56;;;;;;;;;;;;;;;25.84;42.68;94359.25;5044175;28;7697;-64
2022/12/30 02:21:11;;;;;;;;;;;;;;;25.84;42.75;94347.47;5063575;28;7207;-63
2022/12/30 02:24:10;;;;;;;;;;;;;;;25.85;43.17;94351.72;5050494;28;10227;-64
2022/12/30 02:26:59;;;;;;;;;;;;;;;25.85;42.27;94349.72;5049722;28;7276;-64
2022/12/30 02:29:59;;;;;;;;;;;;;;;25.82;42.63;94347.25;5039114;28;7463;-63
2022/12/30 02:32:46;;;;;;;;;;;;;;;25.83;42.87;94337.72;5062137;28;8047;-63
2022/12/30 02:35:40;;;;;;;;;;;;;;;25.82;43.17;94338.97;5047831;28;7346;-61
2022/12/30 02:38:25;;;;;;;;;;;;;;;25.83;42.39;94337.72;5044128;28;7261;-64
2022/12/30 02:47:11;;;;;;;;;;;;;;;25.80;42.79;94319.47;5061121;28;7051;-63
2022/12/30 02:53:03;;;;;;;;;;;;;;;25.80;42.94;94309.19;5061668;28;7254;-64
2022/12/30 02:55:35;;;;;;;;;;;;;;;25.81;42.95;94302.44;5049571;28;7488;-63
2022/12/30 02:58:01;;;;;;;;;;;;;;;25.81;42.59;94305.19;5050142;28;7482;-63
2022/12/30 03:04:09;;;;;;;;;;;;;;;25.82;42.62;94305.91;5057260;28;7271;-63
2022/12/30 03:07:08;;;;;;;;;;;;;;;25.83;42.99;94301.91;5044051;28;7229;-62
2022/12/30 03:13:05;;;;;;;;;;;;;;;25.81;42.79;94299.69;5057951;28;8967;-64
2022/12/30 03:15:52;;;;;;;;;;;;;;;25.81;42.61;94299.69;5042066;28;7153;-62
2022/12/30 03:18:32;;;;;;;;;;;;;;;25.80;42.54;94298.16;5049568;28;7058;-62
2022/12/30 03:21:03;;;;;;;;;;;;;;;25.81;42.74;94302.44;5069429;28;7444;-60
2022/12/30 03:29:20;;;;;;;;;;;;;;;25.82;43.01;94292.13;5065362;28;7262;-62
2022/12/30 03:31:54;;;;;;;;;;;;;;;25.82;42.15;94289.38;5057257;28;7501;-61
2022/12/30 03:34:37;;;;;;;;;;;;;;;25.80;42.49;94287.16;5062431;28;7208;-63
2022/12/30 03:37:15;;;;;;;;;;;;;;;25.82;42.63;94292.13;5054314;28;6865;-62
2022/12/30 03:39:48;;;;;;;;;;;;;;;25.81;43.06;94294.16;5055731;28;7033;-62
2022/12/30 03:42:19;;;;;;;;;;;;;;;25.83;42.68;94286.13;5065415;28;7346;-62
2022/12/30 03:44:50;;;;;;;;;;;;;;;25.82;42.41;94270.09;5065149;28;7602;-62
2022/12/30 03:47:18;;;;;;;;;;;;;;;25.82;42.64;94265.34;5062038;28;7621;-63
2022/12/30 03:49:47;;;;;;;;;;;;;;;25.79;42.98;94262.88;5059672;28;8649;-62
2022/12/30 03:52:28;;;;;;;;;;;;;;;25.81;42.67;94261.09;5041877;28;7263;-61
2022/12/30 03:54:59;;;;;;;;;;;;;;;25.79;42.71;94255.38;5050616;28;7211;-63
2022/12/30 03:57:27;;;;;;;;;;;;;;;25.81;42.30;94255.59;5049535;28;7379;-62
2022/12/30 03:59:54;;;;;;;;;;;;;;;25.80;42.21;94248.56;5067157;28;7134;-62
2022/12/30 04:02:22;;;;;;;;;;;;;;;25.78;42.66;94244.84;5056287;28;7479;-63
2022/12/30 04:04:51;;;;;;;;;;;;;;;25.78;42.43;94234.56;5064273;28;9265;-61
2022/12/30 04:07:21;;;;;;;;;;;;;;;25.79;42.73;94240.84;5046000;28;7508;-62
2022/12/30 04:09:47;;;;;;;;;;;;;;;25.79;43.18;94238.84;5056502;28;7300;-61
2022/12/30 04:12:15;;;;;;;;;;;;;;;25.80;43.30;94234.06;5037202;28;7293;-63
2022/12/30 04:14:51;;;;;;;;;;;;;;;25.78;42.46;94234.56;5056440;28;7500;-63
2022/12/30 04:17:24;;;;;;;;;;;;;;;25.78;42.56;94228.31;5053568;28;7033;-63
2022/12/30 04:19:56;;;;;;;;;;;;;;;25.78;43.08;94218.03;5048568;28;8205;-63
2022/12/30 04:22:57;;;;;;;;;;;;;;;25.80;43.14;94221.03;5067829;28;8394;-62
2022/12/30 04:25:30;;;;;;;;;;;;;;;25.81;42.79;94211.50;4969332;28;7033;-62
2022/12/30 04:27:58;;;;;;;;;;;;;;;25.83;42.54;94214.50;4986499;28;8877;-62
2022/12/30 04:30:28;;;;;;;;;;;;;;;25.80;42.58;94207.25;4987978;28;7211;-62
2022/12/30 04:32:54;;;;;;;;;;;;;;;25.79;42.36;94205.78;4984987;28;7030;-62
2022/12/30 04:35:20;;;;;;;;;;;;;;;25.78;43.03;94198.75;4985595;28;7178;-62
2022/12/30 04:37:51;;;;;;;;;;;;;;;25.79;42.65;94203.00;4987631;28;7341;-62
2022/12/30 04:40:17;;;;;;;;;;;;;;;25.80;42.64;94195.47;4981880;28;7336;-63
2022/12/30 04:42:43;;;;;;;;;;;;;;;25.77;42.63;94189.00;4986933;28;9099;-63
2022/12/30 04:45:13;;;;;;;;;;;;;;;25.78;42.70;94200.75;4975192;28;7352;-63
2022/12/30 04:47:39;;;;;;;;;;;;;;;25.79;42.95;94202.25;4987343;28;7030;-63
2022/12/30 04:50:08;;;;;;;;;;;;;;;25.79;42.73;94202.25;4992241;28;9415;-62
2022/12/30 04:53:03;;;;;;;;;;;;;;;25.77;42.34;94202.78;4988837;28;7048;-62
2022/12/30 04:55:28;;;;;;;;;;;;;;;25.78;42.63;94203.50;4985295;28;8967;-63
2022/12/30 04:58:04;;;;;;;;;;;;;;;25.77;42.69;94183.50;4985754;28;7073;-63
2022/12/30 05:00:30;;;;;;;;;;;;;;;25.78;42.41;94179.47;5065143;28;7032;-63
2022/12/30 05:02:59;;;;;;;;;;;;;;;25.77;42.93;94178.00;5053917;28;8442;-63
2022/12/30 05:05:27;;;;;;;;;;;;;;;25.78;42.34;94167.69;5054442;28;7111;-63
2022/12/30 05:08:03;;;;;;;;;;;;;;;25.76;42.65;94168.22;5059812;28;9379;-63
2022/12/30 05:10:31;;;;;;;;;;;;;;;25.78;42.35;94170.47;5049969;28;7268;-62
2022/12/30 05:12:58;;;;;;;;;;;;;;;25.75;43.05;94163.97;5047348;28;7781;-62
2022/12/30 05:15:32;;;;;;;;;;;;;;;25.76;42.78;94172.97;5054560;28;8725;-62
2022/12/30 05:17:58;;;;;;;;;;;;;;;25.77;42.93;94166.97;5042144;28;8745;-62
2022/12/30 05:20:26;;;;;;;;;;;;;;;25.78;42.59;94167.69;5054918;28;8510;-63
2022/12/30 05:23:03;;;;;;;;;;;;;;;25.76;42.94;94173.72;5051193;28;7241;-63
2022/12/30 05:28:29;;;;;;;;;;;;;;;25.77;43.08;94166.97;5064736;28;7952;-62
2022/12/30 05:30:58;;;;;;;;;;;;;;;25.78;43.06;94162.19;5036279;28;7024;-62
2022/12/30 05:33:27;;;;;;;;;;;;;;;25.79;42.82;94169.22;5056925;28;9321;-63
2022/12/30 05:35:57;;;;;;;;;;;;;;;25.79;42.26;94180.22;5042600;28;6871;-63
2022/12/30 05:38:28;;;;;;;;;;;;;;;25.78;42.40;94168.44;5058018;28;9050;-63
2022/12/30 05:40:54;;;;;;;;;;;;;;;25.76;43.20;94164.72;5042516;28;7026;-63
2022/12/30 05:43:23;;;;;;;;;;;;;;;25.78;42.90;94171.22;5059851;28;7565;-62
2022/12/30 05:45:55;;;;;;;;;;;;;;;25.76;42.45;94168.22;5052768;28;7128;-62
2022/12/30 05:48:21;;;;;;;;;;;;;;;25.75;42.70;94177.75;5053586;28;7022;-63
2022/12/30 05:51:18;;;;;;;;;;;;;;;25.78;42.82;94184.22;5066146;28;7275;-63
2022/12/30 05:53:46;;;;;;;;;;;;;;;25.77;42.35;94180.00;4992455;28;7524;-63
2022/12/30 05:56:41;;;;;;;;;;;;;;;25.76;42.46;94173.72;5002101;28;7564;-64
2022/12/30 05:59:13;;;;;;;;;;;;;;;25.75;42.89;94174.97;4941985;28;7215;-63
2022/12/30 06:01:51;;;;;;;;;;;;;;;25.74;42.23;94178.25;4938523;28;7235;-63
2022/12/30 06:04:30;;;;;;;;;;;;;;;25.73;42.83;94182.28;4935716;28;7123;-64
2022/12/30 06:07:02;;;;;;;;;;;;;;;25.76;43.07;94189.50;4928733;29;9019;-63
2022/12/30 06:10:00;;;;;;;;;;;;;;;25.76;42.30;94189.50;4932473;28;7043;-63
2022/12/30 06:12:57;;;;;;;;;;;;;;;25.77;42.18;94182.75;4864997;29;9268;-63
2022/12/30 06:15:48;;;;;;;;;;;;;;;25.76;42.61;94182.00;4856559;29;7132;-63
2022/12/30 06:18:22;;;;;;;;;;;;;;;25.77;42.92;94188.25;4863448;29;7273;-63
2022/12/30 06:20:59;;;;;;;;;;;;;;;25.77;42.52;94191.03;4859319;29;7063;-63
2022/12/30 06:23:29;;;;;;;;;;;;;;;25.75;42.37;94199.06;4843525;29;9202;-63
2022/12/30 06:26:15;;;;;;;;;;;;;;;25.72;43.27;94192.56;4848285;29;7330;-62
2022/12/30 06:28:52;;;;;;;;;;;;;;;25.74;42.59;94189.28;4860349;29;7278;-64
2022/12/30 06:31:29;;;;;;;;;;;;;;;25.76;42.57;94187.50;4876099;29;6913;-63
2022/12/30 06:33:56;;;;;;;;;;;;;;;25.77;42.98;94185.50;4871113;29;8593;-63
2022/12/30 06:36:22;;;;;;;;;;;;;;;25.79;42.92;94191.25;4863030;29;7073;-63
2022/12/30 06:38:50;;;;;;;;;;;;;;;25.78;42.26;94186.97;4897355;29;7044;-64
2022/12/30 06:41:18;;;;;;;;;;;;;;;25.76;43.15;94189.50;4903005;29;7339;-63
2022/12/30 06:43:44;;;;;;;;;;;;;;;25.70;43.38;94189.59;4896521;29;7083;-63
2022/12/30 06:46:24;;;;;;;;;;;;;;;25.69;43.23;94196.34;4900755;29;7144;-62
2022/12/30 06:49:11;;;;;;;;;;;;;;;25.66;43.21;94205.66;4933582;28;7043;-62
2022/12/30 06:51:52;;;;;;;;;;;;;;;25.67;42.99;94211.88;4995284;28;7309;-63
2022/12/30 06:54:20;;;;;;;;;;;;;;;25.62;41.97;94205.16;5043353;28;7092;-62
2022/12/30 06:56:47;;;;;;;;;;;;;;;25.59;42.01;94208.22;5050276;28;7055;-62
2022/12/30 06:59:24;;;;;;;;;;;;;;;25.55;42.41;94205.75;5036196;28;7273;-61
2022/12/30 07:02:02;;;;;;;;;;;;;;;25.54;42.87;94198.75;5041501;28;8993;-62
2022/12/30 07:04:42;;;;;;;;;;;;;;;25.54;43.07;94198.75;5058142;28;7065;-62
2022/12/30 07:07:14;;;;;;;;;;;;;;;25.54;43.38;94198.00;5036195;28;7267;-63
2022/12/30 07:10:12;;;;;;;;;;;;;;;25.51;43.49;94194.28;5057643;28;7488;-62
2022/12/30 07:12:47;;;;;;;;;;;;;;;25.49;43.74;94196.78;4985416;28;7164;-63
2022/12/30 07:15:14;;;;;;;;;;;;;;;25.47;43.54;94196.53;4996021;28;8886;-63
2022/12/30 07:17:52;;;;;;;;;;;;;;;25.47;44.22;94204.81;4972234;28;9096;-62
2022/12/30 07:20:34;;;;;;;;;;;;;;;25.52;43.28;94203.25;4983120;28;8502;-61
2022/12/30 07:23:09;;;;;;;;;;;;;;;25.54;44.20;94207.00;5006017;28;7529;-62
2022/12/30 07:25:46;;;;;;;;;;;;;;;25.60;43.87;94215.94;5011594;28;7363;-62
2022/12/30 07:28:19;;;;;;;;;;;;;;;25.60;43.35;94213.19;5009229;28;7247;-62
2022/12/30 07:30:45;;;;;;;;;;;;;;;25.68;42.92;94213.38;4986333;28;7439;-62
2022/12/30 07:33:11;;;;;;;;;;;;;;;25.69;43.94;94223.88;5019885;28;7894;-62
2022/12/30 07:36:13;;;;;;;;;;;;;;;25.71;43.08;94226.16;5007841;28;7476;-63
2022/12/30 07:38:39;;;;;;;;;;;;;;;25.71;43.80;94218.59;4934804;29;7186;-59
2022/12/30 07:41:06;;;;;;;;;;;;;;;25.75;43.30;94213.56;4947918;28;9035;-61
2022/12/30 07:43:34;;;;;;;;;;;;;;;25.77;44.20;94210.31;4952750;28;7123;-61
2022/12/30 07:46:05;;;;;;;;;;;;;;;25.75;43.64;94205.28;4949620;28;9019;-62
2022/12/30 07:48:34;;;;;;;;;;;;;;;25.77;43.69;94204.78;4965584;28;7034;-61
2022/12/30 07:51:12;;;;;;;;;;;;;;;25.77;43.38;94218.56;4999851;28;7016;-61
2022/12/30 07:53:39;;;;;;;;;;;;;;;25.76;43.88;94206.03;4983336;28;9342;-60
2022/12/30 07:56:08;;;;;;;;;;;;;;;25.76;43.25;94204.03;4995721;28;7232;-61
2022/12/30 07:58:37;;;;;;;;;;;;;;;25.76;44.11;94214.31;5004615;28;7645;-61
2022/12/30 08:01:07;;;;;;;;;;;;;;;25.76;43.88;94203.28;4991786;28;7029;-59
2022/12/30 08:03:43;;;;;;;;;;;;;;;25.73;43.33;94198.81;5000827;28;7074;-61
2022/12/30 08:06:15;;;;;;;;;;;;;;;25.74;43.58;94194.78;4980901;28;7478;-62
2022/12/30 08:08:45;;;;;;;;;;;;;;;25.74;44.25;94190.03;5002666;28;7173;-61
2022/12/30 08:11:13;;;;;;;;;;;;;;;25.76;43.81;94190.25;4998461;28;7140;-61
2022/12/30 08:13:43;;;;;;;;;;;;;;;25.77;43.52;94186.25;5060304;28;8477;-61
2022/12/30 08:16:15;;;;;;;;;;;;;;;25.75;43.40;94182.53;5052410;28;7303;-63
2022/12/30 08:18:43;;;;;;;;;;;;;;;25.76;43.09;94186.75;5063545;28;7349;-62
2022/12/30 08:21:13;;;;;;;;;;;;;;;25.71;43.45;94190.34;5054858;28;7320;-61
2022/12/30 08:23:38;;;;;;;;;;;;;;;25.70;44.02;94177.81;5055100;28;9405;-59
2022/12/30 08:26:10;;;;;;;;;;;;;;;25.74;43.25;94179.03;5068528;28;7184;-61
2022/12/30 08:28:37;;;;;;;;;;;;;;;25.77;43.32;94183.50;5062955;28;7039;-61
2022/12/30 08:31:25;;;;;;;;;;;;;;;25.77;43.56;94182.75;5073096;28;8538;-62
2022/12/30 08:33:53;;;;;;;;;;;;;;;25.79;43.87;94180.97;5056682;28;7120;-62
2022/12/30 08:36:23;;;;;;;;;;;;;;;25.78;43.86;94182.22;5065485;28;9132;-61
2022/12/30 08:38:53;;;;;;;;;;;;;;;25.80;43.99;94173.44;5065623;28;7017;-62
2022/12/30 08:41:30;;;;;;;;;;;;;;;25.80;43.84;94167.94;5056931;28;7162;-63
2022/12/30 08:43:58;;;;;;;;;;;;;;;25.77;44.12;94164.22;5056361;28;7108;-63
2022/12/30 08:46:39;;;;;;;;;;;;;;;25.76;44.61;94176.50;5058585;28;8496;-62
2022/12/30 08:49:18;;;;;;;;;;;;;;;25.77;44.43;94169.72;5061162;28;7062;-61
2022/12/30 08:51:52;;;;;;;;;;;;;;;25.78;44.61;94164.94;5061028;28;7895;-61
2022/12/30 08:54:24;;;;;;;;;;;;;;;25.79;44.46;94153.44;5055911;28;7018;-62
2022/12/30 08:56:52;;;;;;;;;;;;;;;25.81;44.49;94145.38;5073485;28;7272;-63
2022/12/30 08:59:18;;;;;;;;;;;;;;;25.85;43.13;94145.09;5063198;28;7039;-63
2022/12/30 09:01:47;;;;;;;;;;;;;;;25.88;43.40;94142.03;5057847;28;7284;-63
2022/12/30 09:04:13;;;;;;;;;;;;;;;25.85;43.08;94137.56;5069705;28;8256;-61
2022/12/30 09:06:43;;;;;;;;;;;;;;;25.86;43.19;94143.84;5056440;28;7800;-62
2022/12/30 09:09:21;;;;;;;;;;;;;;;25.86;43.38;94147.31;5060189;28;7038;-61
2022/12/30 09:11:52;;;;;;;;;;;;;;;25.87;43.66;94140.56;5056344;28;7588;-63
2022/12/30 09:14:25;;;;;;;;;;;;;;;25.89;43.09;94138.03;5054726;28;8503;-63
2022/12/30 09:16:58;;;;;;;;;;;;;;;25.91;43.45;94137.50;5061947;28;7161;-63
2022/12/30 09:19:29;;;;;;;;;;;;;;;25.91;44.38;94143.00;5060305;28;7038;-64
2022/12/30 09:21:55;;;;;;;;;;;;;;;25.93;44.08;94130.22;5055359;28;8319;-63
2022/12/30 09:24:49;;;;;;;;;;;;;;;25.96;43.44;94133.94;5053314;28;7437;-61
2022/12/30 09:27:16;;;;;;;;;;;;;;;25.97;43.79;94125.16;5003273;28;7073;-63
2022/12/30 09:29:57;;;;;;;;;;;;;;;25.97;44.08;94130.66;4983267;28;7021;-62
2022/12/30 09:32:29;;;;;;;;;;;;;;;25.98;43.01;94126.66;5009162;28;7268;-62
2022/12/30 09:35:06;;;;;;;;;;;;;;;25.98;43.82;94115.63;5002781;28;7391;-64
2022/12/30 09:37:34;;;;;;;;;;;;;;;25.99;43.38;94111.59;4979001;28;9652;-63
2022/12/30 09:40:00;;;;;;;;;;;;;;;25.99;43.46;94111.59;4987721;28;7120;-63
2022/12/30 09:45:41;;;;;;;;;;;;;;;26.01;43.96;94102.81;5005524;28;8867;-65
2022/12/30 09:48:30;;;;;;;;;;;;;;;26.01;44.21;94103.53;4987177;28;7051;-63
2022/12/30 09:51:15;;;;;;;;;;;;;;;26.00;43.89;94106.81;5006046;28;7038;-63
2022/12/30 09:54:13;;;;;;;;;;;;;;;25.99;44.12;94089.53;5007731;28;7515;-63
2022/12/30 09:56:50;;;;;;;;;;;;;;;25.98;43.57;94088.06;4993498;28;6949;-62
2022/12/30 09:59:32;;;;;;;;;;;;;;;25.98;44.19;94099.09;4988544;28;7041;-62
2022/12/30 10:02:32;;;;;;;;;;;;;;;25.98;43.61;94090.81;5001524;28;7350;-63
2022/12/30 10:04:59;;;;;;;;;;;;;;;26.00;43.85;94096.56;5059533;28;8977;-62
2022/12/30 10:07:56;;;;;;;;;;;;;;;25.99;44.40;94066.78;5065708;28;7212;-63
2022/12/30 10:10:52;;;;;;;;;;;;;;;25.98;44.12;94074.28;5056699;28;7223;-62
2022/12/30 10:13:38;;;;;;;;;;;;;;;25.98;43.97;94060.50;5056199;28;7813;-62
2022/12/30 10:16:20;;;;;;;;;;;;;;;25.99;44.13;94075.75;5062324;28;10711;-62
2022/12/30 10:19:26;;;;;;;;;;;;;;;26.01;44.00;94067.72;5060379;28;7004;-62
2022/12/30 10:22:07;;;;;;;;;;;;;;;26.02;43.27;94054.69;5064950;28;7288;-63
2022/12/30 10:24:37;;;;;;;;;;;;;;;26.01;43.64;94053.94;5066362;28;6998;-62
2022/12/30 10:27:20;;;;;;;;;;;;;;;26.00;43.24;94038.69;5060846;28;7196;-61
2022/12/30 10:29:47;;;;;;;;;;;;;;;26.01;43.48;94037.41;5063657;28;7253;-63
2022/12/30 10:32:28;;;;;;;;;;;;;;;26.01;43.90;94031.88;5069087;28;7283;-62
2022/12/30 10:35:17;;;;;;;;;;;;;;;26.02;43.14;94030.63;5059743;28;7251;-62
2022/12/30 10:37:47;;;;;;;;;;;;;;;26.01;43.51;94036.69;5051964;28;7378;-63
2022/12/30 10:40:16;;;;;;;;;;;;;;;26.01;43.61;94031.88;5068489;28;8683;-63
2022/12/30 10:42:41;;;;;;;;;;;;;;;26.00;43.30;94024.91;5053883;28;8957;-62
2022/12/30 10:45:45;;;;;;;;;;;;;;;26.03;43.65;94026.59;5053807;28;7245;-62
2022/12/30 10:48:25;;;;;;;;;;;;;;;26.03;43.38;94023.84;5053244;28;7054;-64
2022/12/30 10:51:11;;;;;;;;;;;;;;;26.04;43.20;94019.84;5052413;28;7616;-62
2022/12/30 10:53:48;;;;;;;;;;;;;;;26.03;43.11;94021.09;5072738;28;9018;-63
2022/12/30 10:56:27;;;;;;;;;;;;;;;26.03;42.89;94023.13;5064491;28;7193;-62
2022/12/30 10:59:16;;;;;;;;;;;;;;;26.01;42.38;94018.13;5061227;28;7218;-62
2022/12/30 11:01:46;;;;;;;;;;;;;;;25.97;41.03;94014.16;5057079;28;9114;-60
2022/12/30 11:04:37;;;;;;;;;;;;;;;25.95;42.04;94008.44;5064700;28;7046;-62
2022/12/30 11:07:15;;;;;;;;;;;;;;;25.94;42.18;94010.47;5060963;28;7185;-61
2022/12/30 11:09:43;;;;;;;;;;;;;;;25.93;41.67;94003.44;5064286;28;9112;-62
2022/12/30 11:15:53;;;;;;;;;;;;;;;25.92;41.91;93990.22;5058768;28;7017;-62
2022/12/30 11:18:27;;;;;;;;;;;;;;;25.92;42.00;93996.47;5064975;28;7161;-63
2022/12/30 11:20:57;;;;;;;;;;;;;;;25.91;42.17;93991.47;5069519;28;7142;-63
2022/12/30 11:23:43;;;;;;;;;;;;;;;25.93;42.42;94003.44;5068552;28;7482;-63
2022/12/30 11:26:21;;;;;;;;;;;;;;;25.97;42.83;94012.16;5051523;28;7080;-63
2022/12/30 11:28:56;;;;;;;;;;;;;;;25.95;42.79;94009.19;5057623;28;9032;-63
2022/12/30 11:31:36;;;;;;;;;;;;;;;25.97;42.28;94014.91;5059233;28;9081;-62
2022/12/30 11:34:05;;;;;;;;;;;;;;;25.97;41.98;94009.41;5060984;28;7328;-62
2022/12/30 11:36:35;;;;;;;;;;;;;;;25.97;42.02;94014.91;5063229;28;8806;-63
2022/12/30 11:39:04;;;;;;;;;;;;;;;25.98;42.69;94004.66;5041698;28;9031;-61
2022/12/30 11:41:33;;;;;;;;;;;;;;;25.99;42.65;94004.09;5062438;28;7168;-63
2022/12/30 11:44:12;;;;;;;;;;;;;;;26.01;42.25;93998.81;5074614;28;7047;-64
2022/12/30 11:46:50;;;;;;;;;;;;;;;25.97;42.66;93995.63;5065463;28;7102;-62
2022/12/30 11:49:32;;;;;;;;;;;;;;;25.99;42.11;94006.88;5067982;28;8368;-63
2022/12/30 11:52:20;;;;;;;;;;;;;;;26.00;42.22;94004.88;5054289;28;7581;-63
2022/12/30 11:54:54;;;;;;;;;;;;;;;25.96;42.37;94001.66;5067910;28;7301;-63
2022/12/30 11:57:50;;;;;;;;;;;;;;;25.97;42.40;94009.41;5077563;28;7600;-62
2022/12/30 12:00:15;;;;;;;;;;;;;;;25.96;42.37;94001.66;5026704;28;9405;-63
2022/12/30 12:02:55;;;;;;;;;;;;;;;25.97;42.18;94014.16;5049197;28;7256;-62
2022/12/30 12:06:04;;;;;;;;;;;;;;;25.95;42.97;94013.94;5049064;28;7030;-63
2022/12/30 12:09:08;;;;;;;;;;;;;;;25.95;42.80;94011.94;5003790;28;7259;-63
2022/12/30 12:11:45;;;;;;;;;;;;;;;25.96;42.62;94007.94;4970031;28;7727;-62
2022/12/30 12:14:25;;;;;;;;;;;;;;;25.95;42.86;94011.19;4953897;28;6992;-59
2022/12/30 12:17:27;;;;;;;;;;;;;;;25.93;42.89;94016.47;4969814;28;10290;-62
2022/12/30 12:20:03;;;;;;;;;;;;;;;25.94;42.94;94012.47;4966707;28;6973;-62
2022/12/30 12:23:03;;;;;;;;;;;;;;;25.95;42.97;94017.44;4967479;28;7305;-62
2022/12/30 12:25:44;;;;;;;;;;;;;;;25.96;42.96;94029.97;4954036;28;7031;-62
2022/12/30 12:28:13;;;;;;;;;;;;;;;25.96;42.35;94027.22;4970744;28;7287;-62
2022/12/30 12:30:54;;;;;;;;;;;;;;;25.97;42.82;94041.72;4973354;28;7253;-62
2022/12/30 12:34:01;;;;;;;;;;;;;;;25.96;42.36;94035.47;4956988;28;7049;-62
2022/12/30 12:36:58;;;;;;;;;;;;;;;25.97;42.77;94019.69;4957287;28;8227;-62
2022/12/30 12:39:49;;;;;;;;;;;;;;;25.94;42.66;94009.72;4989615;28;7352;-62
2022/12/30 12:42:25;;;;;;;;;;;;;;;25.94;42.49;94006.97;4978992;28;7265;-62
2022/12/30 12:45:22;;;;;;;;;;;;;;;25.94;42.55;93991.19;4990255;28;7384;-62
2022/12/30 12:48:07;;;;;;;;;;;;;;;25.94;42.62;94015.97;5024961;28;9587;-62
2022/12/30 12:51:11;;;;;;;;;;;;;;;25.94;42.63;94009.72;5060150;28;7337;-62
2022/12/30 12:53:57;;;;;;;;;;;;;;;25.91;42.70;94006.00;5069465;28;9067;-63
2022/12/30 12:56:49;;;;;;;;;;;;;;;25.90;42.67;93998.97;5065863;28;7407;-62
2022/12/30 12:59:47;;;;;;;;;;;;;;;25.93;42.53;94008.97;5061702;28;7345;-61
2022/12/30 13:02:41;;;;;;;;;;;;;;;25.95;42.67;94000.91;5052680;28;7277;-62
2022/12/30 13:05:42;;;;;;;;;;;;;;;25.94;42.97;94004.19;5048221;28;7799;-62
2022/12/30 13:08:48;;;;;;;;;;;;;;;25.92;42.38;93984.69;5051349;28;7894;-62
2022/12/30 13:11:14;;;;;;;;;;;;;;;25.94;42.62;93982.16;5044789;28;7032;-62
2022/12/30 13:14:02;;;;;;;;;;;;;;;25.92;43.18;93979.94;5051147;28;6859;-62
2022/12/30 13:16:38;;;;;;;;;;;;;;;25.93;42.59;93978.66;5063041;28;7258;-62
2022/12/30 13:19:18;;;;;;;;;;;;;;;25.94;42.78;93969.13;5052203;28;9533;-62
2022/12/30 13:21:57;;;;;;;;;;;;;;;25.94;43.19;93980.16;5042627;28;7016;-63
2022/12/30 13:24:34;;;;;;;;;;;;;;;25.92;43.07;93990.97;5062889;28;9069;-61
2022/12/30 13:27:05;;;;;;;;;;;;;;;25.92;43.02;93988.19;5050944;28;7263;-62
2022/12/30 13:29:40;;;;;;;;;;;;;;;25.92;42.41;94004.72;5038731;28;7045;-63
2022/12/30 13:32:32;;;;;;;;;;;;;;;25.90;42.50;93993.47;5044169;28;9424;-62
2022/12/30 13:35:38;;;;;;;;;;;;;;;25.93;43.14;93994.44;5045521;28;8554;-63
2022/12/30 13:38:13;;;;;;;;;;;;;;;25.95;42.33;93989.91;5048800;28;7051;-62
2022/12/30 13:40:59;;;;;;;;;;;;;;;25.95;42.80;94000.91;5043733;28;7342;-63
2022/12/30 13:43:40;;;;;;;;;;;;;;;25.94;42.65;94004.19;5043722;28;7085;-62
2022/12/30 13:46:20;;;;;;;;;;;;;;;25.93;42.43;93983.41;5050955;28;10684;-62
2022/12/30 13:49:04;;;;;;;;;;;;;;;25.94;42.10;94004.94;5065784;28;9202;-59
2022/12/30 13:51:34;;;;;;;;;;;;;;;25.94;42.31;94009.72;5051871;28;7003;-63
2022/12/30 13:54:18;;;;;;;;;;;;;;;25.94;42.58;94004.19;5049953;28;7461;-62
2022/12/30 13:56:53;;;;;;;;;;;;;;;25.93;42.82;94000.69;5046936;28;7884;-62
2022/12/30 13:59:30;;;;;;;;;;;;;;;25.93;42.95;93994.44;5057810;28;7306;-62
2022/12/30 14:02:49;;;;;;;;;;;;;;;25.93;42.14;94025.50;5036554;28;7308;-63
2022/12/30 14:05:38;;;;;;;;;;;;;;;25.94;42.93;94012.47;5059606;28;7436;-63
2022/12/30 14:08:25;;;;;;;;;;;;;;;25.95;42.63;94006.44;5065012;28;7411;-62
2022/12/30 14:11:00;;;;;;;;;;;;;;;25.99;43.05;94012.38;5044081;28;6978;-62
2022/12/30 14:14:16;;;;;;;;;;;;;;;25.96;43.12;94007.94;5054491;28;7542;-63
2022/12/30 14:17:21;;;;;;;;;;;;;;;25.96;42.17;94007.19;5044583;28;9232;-62
2022/12/30 14:19:57;;;;;;;;;;;;;;;25.96;42.46;94010.69;4934946;28;8481;-62
2022/12/30 14:22:45;;;;;;;;;;;;;;;25.97;42.99;94005.91;4949675;28;7097;-62
2022/12/30 14:25:32;;;;;;;;;;;;;;;25.97;43.09;94014.91;4933609;28;7263;-61
2022/12/30 14:28:14;;;;;;;;;;;;;;;25.99;42.62;94006.16;4944600;28;7883;-62
2022/12/30 14:30:55;;;;;;;;;;;;;;;25.96;42.57;94009.94;4949742;28;7116;-62
2022/12/30 14:33:51;;;;;;;;;;;;;;;25.97;42.24;94003.91;4933918;28;7432;-61
2022/12/30 14:36:18;;;;;;;;;;;;;;;25.98;42.34;93997.13;4944572;28;7109;-61
2022/12/30 14:38:49;;;;;;;;;;;;;;;25.99;42.27;93995.84;4943431;28;7018;-64
2022/12/30 14:41:15;;;;;;;;;;;;;;;26.02;41.82;94000.31;4938347;28;7275;-64
2022/12/30 14:43:57;;;;;;;;;;;;;;;26.04;42.70;93989.53;4937399;29;8219;-63
2022/12/30 14:46:36;;;;;;;;;;;;;;;26.04;42.18;93991.53;4949596;28;7251;-63
2022/12/30 14:49:10;;;;;;;;;;;;;;;26.04;42.16;93986.75;4944392;29;7137;-63
2022/12/30 14:52:07;;;;;;;;;;;;;;;26.07;42.21;93988.47;4934531;29;7578;-63
2022/12/30 14:55:12;;;;;;;;;;;;;;;26.08;42.06;94008.50;4956749;28;7293;-62
2022/12/30 14:57:41;;;;;;;;;;;;;;;26.07;42.32;94007.78;5060695;28;9382;-62
2022/12/30 15:00:07;;;;;;;;;;;;;;;26.03;42.17;94015.56;5053733;28;7837;-62